createdAt,value
2023-04-18T00:00:10.501Z,100955.20
2023-04-18T00:02:44.299Z,100959.10
2023-04-18T00:05:12.866Z,100951.62
2023-04-18T00:07:41.725Z,100953.15
2023-04-18T00:10:10.425Z,100950.09
2023-04-18T00:12:43.165Z,100952.17
2023-04-18T00:15:13.112Z,100953.20
2023-04-18T00:17:42.026Z,100950.42
2023-04-18T00:20:11.470Z,100952.34
2023-04-18T00:22:44.158Z,100950.27
2023-04-18T00:25:13.516Z,100951.86
2023-04-18T00:27:42.044Z,100950.89
2023-04-18T00:30:10.974Z,100947.09
2023-04-18T00:32:39.734Z,100951.20
2023-04-18T00:35:08.284Z,100947.96
2023-04-18T00:37:40.956Z,100947.85
2023-04-18T00:40:18.286Z,100941.73
2023-04-18T00:43:27.141Z,100942.22
2023-04-18T00:46:02.681Z,100938.21
2023-04-18T00:48:31.042Z,100937.83
2023-04-18T00:51:00.666Z,100939.27
2023-04-18T00:53:29.294Z,100938.12
2023-04-18T00:55:57.839Z,100935.16
2023-04-18T00:58:26.223Z,100933.75
2023-04-18T01:00:54.992Z,100934.05
2023-04-18T01:03:24.599Z,100932.55
2023-04-18T01:05:54.181Z,100932.84
2023-04-18T01:08:22.830Z,100932.72
2023-04-18T01:10:51.341Z,100934.36
2023-04-18T01:13:20.376Z,100934.39
2023-04-18T01:15:50.149Z,100936.03
2023-04-18T01:18:19.386Z,100939.27
2023-04-18T01:20:49.595Z,100941.17
2023-04-18T01:23:18.739Z,100943.94
2023-04-18T01:25:47.327Z,100943.83
2023-04-18T01:28:16.300Z,100941.63
2023-04-18T01:30:44.588Z,100940.86
2023-04-18T01:33:14.777Z,100941.55
2023-04-18T01:35:44.378Z,100943.58
2023-04-18T01:38:12.645Z,100942.15
2023-04-18T01:40:41.333Z,100945.04
2023-04-18T01:43:09.677Z,100939.75
2023-04-18T01:45:39.348Z,100938.18
2023-04-18T01:48:09.230Z,100941.59
2023-04-18T01:50:39.182Z,100942.48
2023-04-18T01:53:07.627Z,100947.52
2023-04-18T01:55:38.354Z,100944.70
2023-04-18T01:58:07.379Z,100941.21
2023-04-18T02:00:37.759Z,100941.69
2023-04-18T02:03:08.697Z,100943.39
2023-04-18T02:05:37.862Z,100941.73
2023-04-18T02:08:11.839Z,100939.81
2023-04-18T02:10:40.243Z,100937.59
2023-04-18T02:13:08.916Z,100937.75
2023-04-18T02:15:37.613Z,100940.52
2023-04-18T02:18:08.403Z,100939.02
2023-04-18T02:20:40.241Z,100940.48
2023-04-18T02:23:09.776Z,100940.27
2023-04-18T02:25:37.998Z,100940.00
2023-04-18T02:28:06.203Z,100938.80
2023-04-18T02:30:34.694Z,100936.83
2023-04-18T02:33:04.017Z,100939.55
2023-04-18T02:35:32.286Z,100940.20
2023-04-18T02:38:00.844Z,100939.60
2023-04-18T02:40:31.715Z,100938.91
2023-04-18T02:43:03.025Z,100935.22
2023-04-18T02:45:32.988Z,100934.90
2023-04-18T02:48:01.879Z,100937.73
2023-04-18T02:50:32.377Z,100935.73
2023-04-18T02:53:00.695Z,100936.09
2023-04-18T02:55:42.882Z,100939.46
2023-04-18T02:58:11.660Z,100931.23
2023-04-18T03:01:05.894Z,100928.98
2023-04-18T03:03:53.750Z,100925.30
2023-04-18T03:06:41.840Z,100927.10
2023-04-18T03:09:10.168Z,100928.31
2023-04-18T03:11:41.966Z,100932.55
2023-04-18T03:14:10.849Z,100932.85
2023-04-18T03:16:51.747Z,100932.78
2023-04-18T03:19:23.338Z,100933.51
2023-04-18T03:21:53.265Z,100931.64
2023-04-18T03:24:21.565Z,100937.27
2023-04-18T03:26:51.114Z,100938.95
2023-04-18T03:29:20.373Z,100942.65
2023-04-18T03:31:48.973Z,100944.80
2023-04-18T03:34:17.332Z,100947.21
2023-04-18T03:36:47.845Z,100951.88
2023-04-18T03:39:22.744Z,100950.91
2023-04-18T03:41:52.420Z,100949.30
2023-04-18T03:44:22.208Z,100948.61
2023-04-18T03:46:50.773Z,100941.09
2023-04-18T03:49:19.782Z,100945.86
2023-04-18T03:51:49.125Z,100940.77
2023-04-18T03:54:17.622Z,100941.48
2023-04-18T03:56:46.506Z,100939.45
2023-04-18T03:59:15.616Z,100942.62
2023-04-18T04:01:46.980Z,100939.41
2023-04-18T04:04:18.090Z,100935.68
2023-04-18T04:06:46.992Z,100938.23
2023-04-18T04:09:15.572Z,100936.77
2023-04-18T04:11:43.922Z,100927.73
2023-04-18T04:14:13.002Z,100926.51
2023-04-18T04:16:44.923Z,100940.98
2023-04-18T04:19:15.671Z,100938.44
2023-04-18T04:21:54.153Z,100932.69
2023-04-18T04:24:23.096Z,100937.91
2023-04-18T04:26:53.244Z,100938.17
2023-04-18T04:29:24.467Z,100937.10
2023-04-18T04:31:53.395Z,100942.02
2023-04-18T04:34:35.900Z,100948.80
2023-04-18T04:37:05.894Z,100944.64
2023-04-18T04:39:38.048Z,100946.23
2023-04-18T04:42:19.622Z,100951.72
2023-04-18T04:44:57.462Z,100954.13
2023-04-18T04:47:26.537Z,100948.24
2023-04-18T04:49:56.836Z,100950.18
2023-04-18T04:52:24.992Z,100951.16
2023-04-18T04:54:53.206Z,100952.58
2023-04-18T04:57:22.324Z,100958.91
2023-04-18T04:59:50.912Z,100959.90
2023-04-18T05:02:28.960Z,100960.27
2023-04-18T05:04:59.688Z,100961.37
2023-04-18T05:07:30.627Z,100960.77
2023-04-18T05:09:58.904Z,100960.48
2023-04-18T05:12:27.604Z,100958.48
2023-04-18T05:14:56.255Z,100965.06
2023-04-18T05:17:24.583Z,100967.31
2023-04-18T05:19:57.547Z,100969.17
2023-04-18T05:22:25.832Z,100970.89
2023-04-18T05:24:54.035Z,100970.58
2023-04-18T05:27:22.520Z,100968.39
2023-04-18T05:29:51.223Z,100973.69
2023-04-18T05:32:19.988Z,100977.39
2023-04-18T05:34:48.679Z,100978.31
2023-04-18T05:37:19.212Z,100977.39
2023-04-18T05:39:52.089Z,100974.70
2023-04-18T05:42:20.241Z,100971.46
2023-04-18T05:44:49.554Z,100972.88
2023-04-18T05:47:17.839Z,100972.96
2023-04-18T05:49:46.066Z,100979.81
2023-04-18T05:52:16.388Z,100972.23
2023-04-18T05:54:44.814Z,100972.98
2023-04-18T05:57:14.273Z,100975.21
2023-04-18T05:59:42.868Z,100972.31
2023-04-18T06:02:13.884Z,100967.80
2023-04-18T06:04:42.788Z,100964.13
2023-04-18T06:07:11.501Z,100961.42
2023-04-18T06:09:41.159Z,100958.16
2023-04-18T06:12:09.579Z,100962.14
2023-04-18T06:14:37.742Z,100959.73
2023-04-18T06:17:07.452Z,100963.39
2023-04-18T06:19:38.705Z,100965.98
2023-04-18T06:22:08.414Z,100962.44
2023-04-18T06:24:37.653Z,100960.81
2023-04-18T06:27:06.010Z,100960.33
2023-04-18T06:29:36.227Z,100966.11
2023-04-18T06:32:06.437Z,100964.86
2023-04-18T06:34:35.810Z,100960.55
2023-04-18T06:37:04.155Z,100959.74
2023-04-18T06:39:36.769Z,100960.65
2023-04-18T06:42:05.800Z,100959.41
2023-04-18T06:44:36.124Z,100966.17
2023-04-18T06:47:04.664Z,100967.77
2023-04-18T06:49:35.122Z,100969.41
2023-04-18T06:52:05.349Z,100971.61
2023-04-18T06:54:54.559Z,100971.98
2023-04-18T06:57:27.591Z,100973.44
2023-04-18T06:59:57.389Z,100974.40
2023-04-18T07:02:42.921Z,100970.77
2023-04-18T07:05:12.701Z,100970.84
2023-04-18T07:07:41.444Z,100965.59
2023-04-18T07:10:31.929Z,100966.14
2023-04-18T07:13:16.403Z,100965.23
2023-04-18T07:15:46.016Z,100966.83
2023-04-18T07:18:34.197Z,100967.30
2023-04-18T07:21:20.945Z,100963.33
2023-04-18T07:24:15.490Z,100962.05
2023-04-18T07:26:47.515Z,100960.88
2023-04-18T07:29:22.554Z,100960.38
2023-04-18T07:31:56.946Z,100961.98
2023-04-18T07:34:29.849Z,100960.38
2023-04-18T07:37:08.278Z,100954.09
2023-04-18T07:39:38.847Z,100954.73
2023-04-18T07:42:11.411Z,100953.01
2023-04-18T07:44:40.781Z,100948.91
2023-04-18T07:47:22.756Z,100945.84
2023-04-18T07:50:13.444Z,100946.61
2023-04-18T07:52:49.528Z,100945.18
2023-04-18T07:55:24.489Z,100941.27
2023-04-18T07:57:53.266Z,100942.43
2023-04-18T08:00:21.648Z,100940.09
2023-04-18T08:02:50.657Z,100942.14
2023-04-18T08:05:19.815Z,100940.38
2023-04-18T08:08:09.843Z,100940.36
2023-04-18T08:10:38.361Z,100943.42
2023-04-18T08:13:06.791Z,100938.23
2023-04-18T08:15:35.101Z,100941.05
2023-04-18T08:18:04.409Z,100938.93
2023-04-18T08:20:32.799Z,100933.68
2023-04-18T08:25:32.758Z,100933.89
2023-04-18T08:28:04.256Z,100934.45
2023-04-18T08:30:35.795Z,100928.23
2023-04-18T08:33:04.058Z,100927.58
2023-04-18T08:35:32.370Z,100925.63
2023-04-18T08:38:01.697Z,100923.06
2023-04-18T08:40:30.670Z,100923.30
2023-04-18T08:42:59.318Z,100918.15
2023-04-18T08:45:29.075Z,100914.78
2023-04-18T08:48:01.979Z,100914.23
2023-04-18T08:50:31.400Z,100912.89
2023-04-18T08:53:02.467Z,100912.45
2023-04-18T08:55:33.912Z,100907.99
2023-04-18T08:58:03.501Z,100912.55
2023-04-18T09:00:33.035Z,100914.60
2023-04-18T09:03:03.180Z,100913.55
2023-04-18T09:05:31.909Z,100913.14
2023-04-18T09:08:00.148Z,100912.95
2023-04-18T09:10:33.557Z,100913.77
2023-04-18T09:13:03.764Z,100912.39
2023-04-18T09:15:35.954Z,100910.71
2023-04-18T09:18:05.878Z,100906.58
2023-04-18T09:20:44.172Z,100904.11
2023-04-18T09:23:16.669Z,100905.77
2023-04-18T11:26:56.428Z,100930.51
2023-04-18T11:29:28.634Z,100932.25
2023-04-18T11:31:58.818Z,100928.22
2023-04-18T11:34:30.894Z,100932.48
2023-04-18T11:37:06.706Z,100931.98
2023-04-18T11:39:36.646Z,100924.31
2023-04-18T11:42:07.826Z,100927.74
2023-04-18T11:44:41.760Z,100929.02
2023-04-18T11:47:29.891Z,100930.80
2023-04-18T11:50:02.363Z,100920.16
2023-04-18T11:52:31.744Z,100917.23
2023-04-18T11:55:27.401Z,100920.79
2023-04-18T11:58:10.826Z,100921.20
2023-04-18T12:00:40.304Z,100914.31
2023-04-18T12:03:15.939Z,100908.23
2023-04-18T12:05:45.964Z,100904.13
2023-04-18T12:08:20.917Z,100902.53
2023-04-18T12:10:51.170Z,100893.46
2023-04-18T12:13:25.216Z,100889.23
2023-04-18T12:15:54.466Z,100883.39
2023-04-18T12:18:24.885Z,100881.64
2023-04-18T12:20:57.021Z,100879.60
2023-04-18T12:23:40.528Z,100879.36
2023-04-18T12:26:13.907Z,100879.10
2023-04-18T12:28:44.994Z,100875.45
2023-04-18T12:31:19.718Z,100878.89
2023-04-18T12:33:47.942Z,100880.32
2023-04-18T12:36:16.982Z,100882.98
2023-04-18T12:38:48.276Z,100882.63
2023-04-18T12:41:16.620Z,100875.23
2023-04-18T12:43:45.105Z,100869.50
2023-04-18T12:46:13.405Z,100872.09
2023-04-18T12:48:41.676Z,100876.13
2023-04-18T12:51:09.824Z,100868.79
2023-04-18T12:53:38.115Z,100863.05
2023-04-18T12:56:06.809Z,100858.80
2023-04-18T12:58:35.098Z,100858.27
2023-04-18T13:01:04.918Z,100854.21
2023-04-18T13:03:34.365Z,100851.73
2023-04-18T13:06:02.817Z,100848.98
2023-04-18T13:08:31.112Z,100840.52
2023-04-18T13:11:02.100Z,100835.92
2023-04-18T13:13:31.078Z,100837.43
2023-04-18T13:15:59.575Z,100832.65
2023-04-18T13:18:28.875Z,100831.32
2023-04-18T13:20:57.093Z,100826.83
2023-04-18T13:23:25.424Z,100825.83
2023-04-18T13:25:56.670Z,100828.16
2023-04-18T13:28:33.134Z,100821.60
2023-04-18T13:31:04.696Z,100821.95
2023-04-18T13:33:33.349Z,100827.81
2023-04-18T13:36:01.794Z,100824.80
2023-04-18T13:38:32.954Z,100821.73
2023-04-18T13:41:12.297Z,100816.04
2023-04-18T13:43:42.121Z,100816.75
2023-04-18T13:46:10.488Z,100814.27
2023-04-18T13:48:38.855Z,100814.24
2023-04-18T13:51:07.574Z,100812.23
2023-04-18T13:53:40.212Z,100810.46
2023-04-18T13:56:08.989Z,100811.45
2023-04-18T13:58:37.396Z,100811.21
2023-04-18T14:01:05.863Z,100805.96
2023-04-18T14:03:41.296Z,100801.19
2023-04-18T14:06:14.346Z,100803.88
2023-04-18T14:08:43.044Z,100804.56
2023-04-18T14:11:14.837Z,100811.64
2023-04-18T14:13:45.785Z,100813.08
2023-04-18T14:16:15.586Z,100806.64
2023-04-18T14:18:45.400Z,100803.30
2023-04-18T14:21:16.599Z,100802.18
2023-04-18T14:23:46.056Z,100801.07
2023-04-18T14:26:14.373Z,100796.84
2023-04-18T14:28:43.100Z,100796.67
2023-04-18T14:31:11.571Z,100795.39
2023-04-18T14:33:40.572Z,100795.39
2023-04-18T14:36:09.914Z,100798.44
2023-04-18T14:38:38.493Z,100796.52
2023-04-18T14:41:07.209Z,100795.84
2023-04-18T14:43:37.524Z,100793.49
2023-04-18T14:46:12.713Z,100790.40
2023-04-18T14:48:41.003Z,100789.08
2023-04-18T14:51:11.572Z,100784.15
2023-04-18T14:53:42.758Z,100783.49
2023-04-18T14:56:12.986Z,100786.97
2023-04-18T14:58:44.787Z,100787.83
2023-04-18T15:01:15.800Z,100784.65
2023-04-18T15:03:48.070Z,100784.46
2023-04-18T15:06:17.127Z,100780.70
2023-04-18T15:08:46.998Z,100780.98
2023-04-18T15:11:16.818Z,100779.19
2023-04-18T15:13:48.100Z,100777.91
2023-04-18T15:16:16.895Z,100775.02
2023-04-18T15:18:46.028Z,100772.25
2023-04-18T15:21:14.904Z,100774.02
2023-04-18T15:23:45.894Z,100771.13
2023-04-18T15:26:14.092Z,100769.05
2023-04-18T15:28:42.346Z,100766.40
2023-04-18T15:31:11.161Z,100761.81
2023-04-18T15:33:45.400Z,100763.10
2023-04-18T15:36:15.173Z,100761.40
2023-04-18T15:38:45.120Z,100757.52
2023-04-18T15:41:16.876Z,100752.92
2023-04-18T15:43:48.517Z,100753.99
2023-04-18T15:46:17.039Z,100754.33
2023-04-18T15:48:45.679Z,100751.58
2023-04-18T15:51:14.677Z,100751.48
2023-04-18T15:53:43.435Z,100750.55
2023-04-18T15:56:14.516Z,100752.11
2023-04-18T15:58:43.860Z,100752.84
2023-04-18T16:01:19.119Z,100748.24
2023-04-18T16:03:48.121Z,100748.50
2023-04-18T16:06:17.166Z,100748.52
2023-04-18T16:08:48.832Z,100745.02
2023-04-18T16:11:21.381Z,100741.05
2023-04-18T16:13:54.585Z,100741.86
2023-04-18T16:16:29.705Z,100741.33
2023-04-18T16:19:06.066Z,100742.95
2023-04-18T16:21:35.030Z,100741.98
2023-04-18T16:24:05.976Z,100745.50
2023-04-18T16:26:34.276Z,100745.11
2023-04-18T16:29:04.602Z,100740.08
2023-04-18T16:31:35.819Z,100740.11
2023-04-18T16:34:08.050Z,100742.30
2023-04-18T16:36:41.325Z,100743.74
2023-04-18T16:39:09.749Z,100739.20
2023-04-18T16:41:37.902Z,100737.92
2023-04-18T16:44:07.480Z,100737.30
2023-04-18T16:46:38.756Z,100732.20
2023-04-18T16:49:07.008Z,100732.80
2023-04-18T16:51:37.787Z,100735.08
2023-04-18T16:54:09.790Z,100735.24
2023-04-18T16:56:38.755Z,100734.48
2023-04-18T16:59:09.577Z,100735.73
2023-04-18T17:01:38.547Z,100733.41
2023-04-18T17:04:06.854Z,100733.89
2023-04-18T17:06:38.656Z,100729.66
2023-04-18T17:09:07.042Z,100732.84
2023-04-18T17:11:39.702Z,100733.37
2023-04-18T17:14:09.313Z,100731.49
2023-04-18T17:16:40.426Z,100729.89
2023-04-18T17:19:10.857Z,100726.45
2023-04-18T17:21:40.853Z,100727.06
2023-04-18T17:24:09.671Z,100723.63
2023-04-18T17:26:40.932Z,100721.16
2023-04-18T17:29:09.644Z,100718.58
2023-04-18T17:31:39.881Z,100717.93
2023-04-18T17:34:09.198Z,100714.76
2023-04-18T17:36:39.346Z,100711.11
2023-04-18T17:39:11.034Z,100708.92
2023-04-18T17:41:41.176Z,100708.60
2023-04-18T17:44:11.049Z,100708.66
2023-04-18T17:46:40.006Z,100706.40
2023-04-18T17:49:08.560Z,100709.73
2023-04-18T17:51:37.316Z,100709.52
2023-04-18T17:54:05.756Z,100706.27
2023-04-18T17:56:35.073Z,100703.46
2023-04-18T17:59:04.937Z,100700.92
2023-04-18T18:01:39.926Z,100696.84
2023-04-18T18:04:08.514Z,100691.68
2023-04-18T18:06:37.465Z,100689.00
2023-04-18T18:09:06.507Z,100687.55
2023-04-18T18:11:38.814Z,100690.92
2023-04-18T18:14:12.374Z,100688.55
2023-04-18T18:16:44.517Z,100689.31
2023-04-18T18:19:15.823Z,100685.27
2023-04-18T18:21:58.024Z,100681.37
2023-04-18T18:24:32.793Z,100681.80
2023-04-18T18:27:03.325Z,100677.52
2023-04-18T18:29:32.280Z,100671.45
2023-04-18T18:32:00.775Z,100666.88
2023-04-18T18:34:32.338Z,100662.05
2023-04-18T18:37:01.600Z,100659.98
2023-04-18T18:39:30.119Z,100659.50
2023-04-18T18:42:01.270Z,100652.19
2023-04-18T18:44:31.015Z,100650.96
2023-04-18T18:46:59.991Z,100646.11
2023-04-18T18:49:28.222Z,100644.73
2023-04-18T18:51:57.267Z,100636.84
2023-04-18T18:54:26.396Z,100640.16
2023-04-18T18:56:54.806Z,100639.12
2023-04-18T18:59:23.202Z,100638.00
2023-04-18T19:01:51.459Z,100635.91
2023-04-18T19:04:20.002Z,100631.16
2023-04-18T19:06:48.624Z,100628.84
2023-04-18T19:09:17.852Z,100625.92
2023-04-18T19:11:46.234Z,100625.75
2023-04-18T19:14:17.116Z,100624.08
2023-04-18T19:16:48.483Z,100625.14
2023-04-18T19:19:17.717Z,100619.91
2023-04-18T19:21:46.077Z,100611.23
2023-04-18T19:24:20.167Z,100613.75
2023-04-18T19:26:53.749Z,100613.36
2023-04-18T19:29:22.899Z,100607.95
2023-04-18T19:31:51.934Z,100609.68
2023-04-18T19:34:22.464Z,100609.15
2023-04-18T19:36:51.204Z,100606.09
2023-04-18T19:39:19.886Z,100608.45
2023-04-18T19:41:48.110Z,100605.19
2023-04-18T19:44:17.926Z,100601.27
2023-04-18T19:46:46.342Z,100601.62
2023-04-18T19:49:15.567Z,100603.33
2023-04-18T19:51:46.676Z,100600.70
2023-04-18T19:54:15.138Z,100597.96
2023-04-18T19:56:43.392Z,100599.30
2023-04-18T19:59:12.794Z,100594.53
2023-04-18T20:01:46.464Z,100595.39
2023-04-18T20:04:16.301Z,100590.39
2023-04-18T20:06:44.740Z,100590.67
2023-04-18T20:09:17.064Z,100590.34
2023-04-18T20:11:48.744Z,100589.27
2023-04-18T20:14:16.991Z,100585.44
2023-04-18T20:16:46.416Z,100584.66
2023-04-18T20:19:15.718Z,100587.77
2023-04-18T20:21:44.293Z,100583.93
2023-04-18T20:24:13.803Z,100585.54
2023-04-18T20:26:42.261Z,100583.30
2023-04-18T20:29:10.819Z,100581.16
2023-04-18T20:31:42.470Z,100581.20
2023-04-18T20:34:10.764Z,100583.26
2023-04-18T20:36:42.069Z,100576.65
2023-04-18T20:39:10.363Z,100576.44
2023-04-18T20:41:46.577Z,100572.36
2023-04-18T20:44:16.094Z,100569.95
2023-04-18T20:46:44.352Z,100569.10
2023-04-18T20:49:13.970Z,100569.38
2023-04-18T20:51:42.657Z,100565.59
2023-04-18T20:54:10.846Z,100569.89
2023-04-18T20:56:39.012Z,100570.81
2023-04-18T20:59:07.305Z,100570.63
2023-04-18T21:01:37.077Z,100575.20
2023-04-18T21:04:06.031Z,100577.59
2023-04-18T21:06:35.602Z,100578.38
2023-04-18T21:09:04.103Z,100574.02
2023-04-18T21:11:33.742Z,100571.14
2023-04-18T21:14:04.109Z,100574.05
2023-04-18T21:16:33.172Z,100575.14
2023-04-18T21:19:03.723Z,100579.52
2023-04-18T21:21:34.496Z,100573.46
2023-04-18T21:24:07.415Z,100572.35
2023-04-18T21:26:42.984Z,100568.88
2023-04-18T21:29:14.623Z,100571.24
2023-04-18T21:31:42.973Z,100569.38
2023-04-18T21:34:13.253Z,100568.27
2023-04-18T21:36:44.204Z,100565.64
2023-04-18T21:39:12.986Z,100563.66
2023-04-18T21:41:41.608Z,100561.73
2023-04-18T21:44:10.754Z,100554.92
2023-04-18T21:46:39.711Z,100549.73
2023-04-18T21:49:09.232Z,100550.26
2023-04-18T21:51:38.583Z,100552.99
2023-04-18T21:54:07.989Z,100548.20
2023-04-18T21:56:37.256Z,100546.55
2023-04-18T21:59:06.304Z,100539.98
2023-04-18T22:01:38.557Z,100533.91
2023-04-18T22:04:08.025Z,100533.48
2023-04-18T22:06:36.319Z,100531.16
2023-04-18T22:09:07.433Z,100532.12
2023-04-18T22:11:39.675Z,100526.44
2023-04-18T22:14:12.141Z,100519.54
2023-04-18T22:16:45.445Z,100520.93
2023-04-18T22:19:16.827Z,100521.06
2023-04-18T22:21:47.948Z,100515.02
2023-04-18T22:24:16.769Z,100512.79
2023-04-18T22:26:47.753Z,100511.17
2023-04-18T22:29:16.163Z,100508.05
2023-04-18T22:31:45.713Z,100509.52
2023-04-18T22:34:14.177Z,100503.39
2023-04-18T22:36:45.784Z,100502.69
2023-04-18T22:39:17.324Z,100503.92
2023-04-18T22:41:47.655Z,100496.90
2023-04-18T22:44:16.433Z,100498.31
2023-04-18T22:46:51.078Z,100488.34
2023-04-18T22:49:19.422Z,100484.00
2023-04-18T22:51:47.701Z,100480.58
2023-04-18T22:54:18.184Z,100473.82
2023-04-18T22:56:47.424Z,100480.31
2023-04-18T22:59:15.622Z,100474.59
2023-04-18T23:01:44.040Z,100474.97
2023-04-18T23:04:15.037Z,100471.61
2023-04-18T23:06:44.959Z,100465.95
2023-04-18T23:09:13.492Z,100466.48
2023-04-18T23:11:44.773Z,100466.28
2023-04-18T23:14:13.310Z,100463.27
2023-04-18T23:16:43.809Z,100461.20
2023-04-18T23:19:12.284Z,100462.28
2023-04-18T23:21:40.688Z,100456.89
2023-04-18T23:24:12.357Z,100454.80
2023-04-18T23:26:42.672Z,100455.77
2023-04-18T23:29:10.845Z,100454.39
2023-04-18T23:31:40.448Z,100449.80
2023-04-18T23:34:12.484Z,100451.35
2023-04-18T23:36:43.118Z,100447.50
2023-04-18T23:39:13.705Z,100446.88
2023-04-18T23:41:44.211Z,100445.46
2023-04-18T23:44:12.565Z,100440.09
2023-04-18T23:46:41.080Z,100441.52
2023-04-18T23:49:12.771Z,100441.64
2023-04-18T23:51:41.992Z,100441.52
2023-04-18T23:54:19.202Z,100444.78
2023-04-18T23:56:48.682Z,100438.84
2023-04-18T23:59:24.040Z,100438.95
